Lakeville, Massachusetts
Current Conditions -  °F | °C
As of 7:52 AM on Saturday 01 Nov 2014 (Local Time) from KTAN Reporting Station
Overcast Overcast  
Wind Chill: 40°   Ceiling: 1500
Heat Index: 45°   Visibility: 10mi
Dew Point: 38°   Wind: 9mph
Humidity: 76%   Direction: 10°N
Pressure: 29.85"   Gusts: 17mph
Location:  41.85°N, 70.95°W
Report Text: KTAN 011152Z AUTO 01008G15KT 10SM OVC015 07/03 A2985 RMK AO2 PRESFR SLP107 T00720033 10100 20072 58001
Loading
Personal Weather Stations






























Interactive Weather Map
Tropical Storm Tracking
New forecast layout! Learn more

10-Day Weather Forecast

Advertisements
Track Severe Weather on mobile